sensor_id;sensor_type;location;lat;lon;timestamp;P1;durP1;ratioP1;P2;durP2;ratioP2
63536;SDS011;49686;51.880;5.632;2023-04-24T00:01:52;3.97;;;3.45;;
63536;SDS011;49686;51.880;5.632;2023-04-24T00:04:18;4.70;;;2.47;;
63536;SDS011;49686;51.880;5.632;2023-04-24T00:06:46;1.92;;;1.60;;
63536;SDS011;49686;51.880;5.632;2023-04-24T00:09:14;2.70;;;2.10;;
63536;SDS011;49686;51.880;5.632;2023-04-24T00:11:40;2.83;;;2.22;;
63536;SDS011;49686;51.880;5.632;2023-04-24T00:14:07;2.20;;;2.00;;
63536;SDS011;49686;51.880;5.632;2023-04-24T00:16:37;2.53;;;2.05;;
63536;SDS011;49686;51.880;5.632;2023-04-24T00:19:04;2.30;;;2.13;;
63536;SDS011;49686;51.880;5.632;2023-04-24T00:21:30;3.00;;;2.30;;
63536;SDS011;49686;51.880;5.632;2023-04-24T00:23:57;2.35;;;1.95;;
63536;SDS011;49686;51.880;5.632;2023-04-24T00:26:26;1.95;;;1.60;;
63536;SDS011;49686;51.880;5.632;2023-04-24T00:28:52;2.00;;;1.80;;
63536;SDS011;49686;51.880;5.632;2023-04-24T00:31:19;2.35;;;1.92;;
63536;SDS011;49686;51.880;5.632;2023-04-24T00:33:46;2.85;;;2.50;;
63536;SDS011;49686;51.880;5.632;2023-04-24T00:36:13;3.35;;;2.75;;
63536;SDS011;49686;51.880;5.632;2023-04-24T00:38:40;4.97;;;3.88;;
63536;SDS011;49686;51.880;5.632;2023-04-24T00:41:06;4.38;;;3.55;;
63536;SDS011;49686;51.880;5.632;2023-04-24T00:43:35;6.07;;;4.18;;
63536;SDS011;49686;51.880;5.632;2023-04-24T00:46:01;7.37;;;5.20;;
63536;SDS011;49686;51.880;5.632;2023-04-24T00:48:28;9.90;;;7.07;;
63536;SDS011;49686;51.880;5.632;2023-04-24T00:50:56;7.23;;;5.60;;
63536;SDS011;49686;51.880;5.632;2023-04-24T00:53:23;10.05;;;6.82;;
63536;SDS011;49686;51.880;5.632;2023-04-24T00:55:50;11.75;;;6.65;;
63536;SDS011;49686;51.880;5.632;2023-04-24T00:58:18;14.48;;;9.35;;
63536;SDS011;49686;51.880;5.632;2023-04-24T01:00:47;11.02;;;6.30;;
63536;SDS011;49686;51.880;5.632;2023-04-24T01:03:16;10.55;;;6.43;;
63536;SDS011;49686;51.880;5.632;2023-04-24T01:05:44;11.47;;;7.63;;
63536;SDS011;49686;51.880;5.632;2023-04-24T01:08:12;6.97;;;5.07;;
63536;SDS011;49686;51.880;5.632;2023-04-24T01:13:08;7.95;;;4.55;;
63536;SDS011;49686;51.880;5.632;2023-04-24T01:15:35;14.10;;;8.82;;
63536;SDS011;49686;51.880;5.632;2023-04-24T01:18:03;14.93;;;9.50;;
63536;SDS011;49686;51.880;5.632;2023-04-24T01:20:30;19.45;;;11.93;;
63536;SDS011;49686;51.880;5.632;2023-04-24T01:22:59;15.32;;;9.10;;
63536;SDS011;49686;51.880;5.632;2023-04-24T01:25:26;17.07;;;10.63;;
63536;SDS011;49686;51.880;5.632;2023-04-24T01:27:54;18.67;;;10.88;;
63536;SDS011;49686;51.880;5.632;2023-04-24T01:30:20;23.15;;;12.88;;
63536;SDS011;49686;51.880;5.632;2023-04-24T01:32:47;18.05;;;10.40;;
63536;SDS011;49686;51.880;5.632;2023-04-24T01:35:14;22.48;;;14.25;;
63536;SDS011;49686;51.880;5.632;2023-04-24T01:37:41;22.13;;;14.75;;
63536;SDS011;49686;51.880;5.632;2023-04-24T01:40:10;25.92;;;13.68;;
63536;SDS011;49686;51.880;5.632;2023-04-24T01:42:37;18.42;;;11.23;;
63536;SDS011;49686;51.880;5.632;2023-04-24T01:45:05;21.67;;;14.68;;
63536;SDS011;49686;51.880;5.632;2023-04-24T01:47:32;19.85;;;13.90;;
63536;SDS011;49686;51.880;5.632;2023-04-24T01:49:59;20.05;;;14.40;;
63536;SDS011;49686;51.880;5.632;2023-04-24T01:52:26;20.33;;;13.32;;
63536;SDS011;49686;51.880;5.632;2023-04-24T01:54:53;18.65;;;12.35;;
63536;SDS011;49686;51.880;5.632;2023-04-24T01:57:21;19.40;;;12.27;;
63536;SDS011;49686;51.880;5.632;2023-04-24T01:59:48;19.05;;;12.25;;
63536;SDS011;49686;51.880;5.632;2023-04-24T02:02:16;20.25;;;14.23;;
63536;SDS011;49686;51.880;5.632;2023-04-24T02:04:43;23.75;;;14.52;;
63536;SDS011;49686;51.880;5.632;2023-04-24T02:07:10;20.95;;;12.38;;
63536;SDS011;49686;51.880;5.632;2023-04-24T02:09:37;22.88;;;15.02;;
63536;SDS011;49686;51.880;5.632;2023-04-24T02:12:04;24.38;;;15.07;;
63536;SDS011;49686;51.880;5.632;2023-04-24T02:14:32;26.98;;;16.70;;
63536;SDS011;49686;51.880;5.632;2023-04-24T02:16:58;26.03;;;16.23;;
63536;SDS011;49686;51.880;5.632;2023-04-24T02:19:25;22.58;;;14.60;;
63536;SDS011;49686;51.880;5.632;2023-04-24T02:21:52;26.00;;;16.70;;
63536;SDS011;49686;51.880;5.632;2023-04-24T02:24:19;21.88;;;12.88;;
63536;SDS011;49686;51.880;5.632;2023-04-24T02:26:46;11.88;;;9.38;;
63536;SDS011;49686;51.880;5.632;2023-04-24T02:29:13;22.50;;;13.48;;
63536;SDS011;49686;51.880;5.632;2023-04-24T02:31:41;19.45;;;12.95;;
63536;SDS011;49686;51.880;5.632;2023-04-24T02:34:08;21.35;;;13.30;;
63536;SDS011;49686;51.880;5.632;2023-04-24T02:36:35;23.83;;;15.82;;
63536;SDS011;49686;51.880;5.632;2023-04-24T02:39:01;22.67;;;14.23;;
63536;SDS011;49686;51.880;5.632;2023-04-24T02:41:29;18.98;;;12.38;;
63536;SDS011;49686;51.880;5.632;2023-04-24T02:43:55;20.13;;;12.68;;
63536;SDS011;49686;51.880;5.632;2023-04-24T02:46:22;22.30;;;13.60;;
63536;SDS011;49686;51.880;5.632;2023-04-24T02:48:50;22.83;;;13.98;;
63536;SDS011;49686;51.880;5.632;2023-04-24T02:51:17;23.53;;;14.43;;
63536;SDS011;49686;51.880;5.632;2023-04-24T02:53:44;20.38;;;12.00;;
63536;SDS011;49686;51.880;5.632;2023-04-24T02:56:11;19.65;;;12.07;;
63536;SDS011;49686;51.880;5.632;2023-04-24T02:58:39;22.45;;;14.20;;
63536;SDS011;49686;51.880;5.632;2023-04-24T03:01:05;18.60;;;11.93;;
63536;SDS011;49686;51.880;5.632;2023-04-24T03:03:32;21.23;;;13.00;;
63536;SDS011;49686;51.880;5.632;2023-04-24T03:06:01;24.67;;;16.10;;
63536;SDS011;49686;51.880;5.632;2023-04-24T03:08:30;27.52;;;17.50;;
63536;SDS011;49686;51.880;5.632;2023-04-24T03:11:00;25.73;;;15.40;;
63536;SDS011;49686;51.880;5.632;2023-04-24T03:13:27;25.42;;;16.27;;
63536;SDS011;49686;51.880;5.632;2023-04-24T03:15:55;29.15;;;19.15;;
63536;SDS011;49686;51.880;5.632;2023-04-24T03:18:22;19.95;;;11.30;;
63536;SDS011;49686;51.880;5.632;2023-04-24T03:20:49;27.75;;;17.80;;
63536;SDS011;49686;51.880;5.632;2023-04-24T03:23:17;28.10;;;18.30;;
63536;SDS011;49686;51.880;5.632;2023-04-24T03:25:44;33.23;;;20.40;;
63536;SDS011;49686;51.880;5.632;2023-04-24T03:28:10;30.88;;;19.95;;
63536;SDS011;49686;51.880;5.632;2023-04-24T03:30:37;30.02;;;18.15;;
63536;SDS011;49686;51.880;5.632;2023-04-24T03:33:04;33.80;;;18.92;;
63536;SDS011;49686;51.880;5.632;2023-04-24T03:35:31;31.35;;;19.17;;
63536;SDS011;49686;51.880;5.632;2023-04-24T03:37:58;32.63;;;18.65;;
63536;SDS011;49686;51.880;5.632;2023-04-24T03:40:26;35.03;;;21.20;;
63536;SDS011;49686;51.880;5.632;2023-04-24T03:42:52;41.17;;;23.07;;
63536;SDS011;49686;51.880;5.632;2023-04-24T03:45:19;36.78;;;22.05;;
63536;SDS011;49686;51.880;5.632;2023-04-24T03:47:46;36.28;;;23.25;;
63536;SDS011;49686;51.880;5.632;2023-04-24T03:50:13;31.23;;;18.63;;
63536;SDS011;49686;51.880;5.632;2023-04-24T03:52:40;35.83;;;21.70;;
63536;SDS011;49686;51.880;5.632;2023-04-24T03:55:07;35.15;;;20.77;;
63536;SDS011;49686;51.880;5.632;2023-04-24T03:57:35;36.15;;;22.08;;
63536;SDS011;49686;51.880;5.632;2023-04-24T04:00:02;31.77;;;19.75;;
63536;SDS011;49686;51.880;5.632;2023-04-24T04:02:30;28.45;;;18.85;;
63536;SDS011;49686;51.880;5.632;2023-04-24T04:04:57;25.13;;;16.35;;
63536;SDS011;49686;51.880;5.632;2023-04-24T04:07:24;31.52;;;20.08;;
63536;SDS011;49686;51.880;5.632;2023-04-24T04:09:51;32.42;;;20.08;;
63536;SDS011;49686;51.880;5.632;2023-04-24T04:12:17;29.90;;;18.50;;
63536;SDS011;49686;51.880;5.632;2023-04-24T04:14:45;31.40;;;19.17;;
63536;SDS011;49686;51.880;5.632;2023-04-24T04:17:12;31.07;;;19.40;;
63536;SDS011;49686;51.880;5.632;2023-04-24T04:19:39;32.58;;;20.08;;
63536;SDS011;49686;51.880;5.632;2023-04-24T04:22:06;28.00;;;17.63;;
63536;SDS011;49686;51.880;5.632;2023-04-24T04:24:33;27.17;;;15.95;;
63536;SDS011;49686;51.880;5.632;2023-04-24T04:27:00;27.70;;;15.70;;
63536;SDS011;49686;51.880;5.632;2023-04-24T04:29:26;22.08;;;14.05;;
63536;SDS011;49686;51.880;5.632;2023-04-24T04:31:54;24.98;;;17.67;;
63536;SDS011;49686;51.880;5.632;2023-04-24T04:34:21;23.48;;;14.77;;
63536;SDS011;49686;51.880;5.632;2023-04-24T04:36:48;27.60;;;15.98;;
63536;SDS011;49686;51.880;5.632;2023-04-24T04:39:15;24.17;;;14.43;;
63536;SDS011;49686;51.880;5.632;2023-04-24T04:41:45;25.70;;;15.05;;
63536;SDS011;49686;51.880;5.632;2023-04-24T04:44:12;23.88;;;15.50;;
63536;SDS011;49686;51.880;5.632;2023-04-24T04:46:39;23.75;;;14.02;;
63536;SDS011;49686;51.880;5.632;2023-04-24T04:49:07;28.17;;;16.45;;
63536;SDS011;49686;51.880;5.632;2023-04-24T04:51:34;23.87;;;14.20;;
63536;SDS011;49686;51.880;5.632;2023-04-24T04:54:00;21.20;;;13.80;;
63536;SDS011;49686;51.880;5.632;2023-04-24T04:56:29;23.42;;;14.35;;
63536;SDS011;49686;51.880;5.632;2023-04-24T04:58:56;25.13;;;14.55;;
63536;SDS011;49686;51.880;5.632;2023-04-24T05:01:24;24.65;;;15.23;;
63536;SDS011;49686;51.880;5.632;2023-04-24T05:03:51;22.75;;;14.35;;
63536;SDS011;49686;51.880;5.632;2023-04-24T05:06:21;21.42;;;12.20;;
63536;SDS011;49686;51.880;5.632;2023-04-24T05:08:49;25.02;;;14.38;;
63536;SDS011;49686;51.880;5.632;2023-04-24T05:11:16;21.77;;;14.30;;
63536;SDS011;49686;51.880;5.632;2023-04-24T05:13:43;23.95;;;13.93;;
63536;SDS011;49686;51.880;5.632;2023-04-24T05:16:10;20.77;;;12.75;;
63536;SDS011;49686;51.880;5.632;2023-04-24T05:18:36;19.17;;;12.25;;
63536;SDS011;49686;51.880;5.632;2023-04-24T05:21:03;16.55;;;10.65;;
63536;SDS011;49686;51.880;5.632;2023-04-24T05:23:32;15.82;;;10.73;;
63536;SDS011;49686;51.880;5.632;2023-04-24T05:25:58;15.53;;;10.90;;
63536;SDS011;49686;51.880;5.632;2023-04-24T05:28:25;17.73;;;11.40;;
63536;SDS011;49686;51.880;5.632;2023-04-24T05:30:52;16.20;;;10.65;;
63536;SDS011;49686;51.880;5.632;2023-04-24T05:33:19;14.75;;;10.05;;
63536;SDS011;49686;51.880;5.632;2023-04-24T05:35:46;11.52;;;7.85;;
63536;SDS011;49686;51.880;5.632;2023-04-24T05:38:13;13.90;;;9.82;;
63536;SDS011;49686;51.880;5.632;2023-04-24T05:40:42;10.40;;;7.47;;
63536;SDS011;49686;51.880;5.632;2023-04-24T05:43:08;10.48;;;7.28;;
63536;SDS011;49686;51.880;5.632;2023-04-24T05:45:35;12.48;;;7.32;;
63536;SDS011;49686;51.880;5.632;2023-04-24T05:48:02;9.38;;;6.55;;
63536;SDS011;49686;51.880;5.632;2023-04-24T05:50:31;10.05;;;6.95;;
63536;SDS011;49686;51.880;5.632;2023-04-24T05:53:01;8.88;;;6.35;;
63536;SDS011;49686;51.880;5.632;2023-04-24T05:55:31;10.13;;;6.88;;
63536;SDS011;49686;51.880;5.632;2023-04-24T05:57:59;10.27;;;5.70;;
63536;SDS011;49686;51.880;5.632;2023-04-24T06:00:26;9.07;;;6.13;;
63536;SDS011;49686;51.880;5.632;2023-04-24T06:02:53;7.13;;;5.53;;
63536;SDS011;49686;51.880;5.632;2023-04-24T06:05:22;6.35;;;4.85;;
63536;SDS011;49686;51.880;5.632;2023-04-24T06:07:49;4.90;;;3.85;;
63536;SDS011;49686;51.880;5.632;2023-04-24T06:10:17;6.05;;;4.35;;
63536;SDS011;49686;51.880;5.632;2023-04-24T06:12:44;6.53;;;4.72;;
63536;SDS011;49686;51.880;5.632;2023-04-24T06:15:12;5.72;;;3.85;;
63536;SDS011;49686;51.880;5.632;2023-04-24T06:17:39;6.23;;;4.07;;
63536;SDS011;49686;51.880;5.632;2023-04-24T06:20:06;4.15;;;3.00;;
63536;SDS011;49686;51.880;5.632;2023-04-24T06:22:35;4.68;;;3.33;;
63536;SDS011;49686;51.880;5.632;2023-04-24T06:25:02;5.72;;;3.90;;
63536;SDS011;49686;51.880;5.632;2023-04-24T06:27:29;2.75;;;2.20;;
63536;SDS011;49686;51.880;5.632;2023-04-24T06:29:56;2.47;;;1.63;;
63536;SDS011;49686;51.880;5.632;2023-04-24T06:32:24;2.22;;;1.98;;
63536;SDS011;49686;51.880;5.632;2023-04-24T06:34:51;3.95;;;1.65;;
63536;SDS011;49686;51.880;5.632;2023-04-24T06:37:18;2.03;;;1.10;;
63536;SDS011;49686;51.880;5.632;2023-04-24T06:39:45;2.75;;;0.90;;
63536;SDS011;49686;51.880;5.632;2023-04-24T06:42:12;2.92;;;1.38;;
63536;SDS011;49686;51.880;5.632;2023-04-24T06:44:39;2.38;;;1.48;;
63536;SDS011;49686;51.880;5.632;2023-04-24T06:47:06;2.47;;;0.80;;
63536;SDS011;49686;51.880;5.632;2023-04-24T06:49:34;1.65;;;0.85;;
63536;SDS011;49686;51.880;5.632;2023-04-24T06:52:01;1.50;;;0.60;;
63536;SDS011;49686;51.880;5.632;2023-04-24T06:54:28;0.77;;;0.40;;
63536;SDS011;49686;51.880;5.632;2023-04-24T06:56:55;0.63;;;0.47;;
63536;SDS011;49686;51.880;5.632;2023-04-24T06:59:22;2.75;;;0.70;;
63536;SDS011;49686;51.880;5.632;2023-04-24T07:01:49;0.60;;;0.50;;
63536;SDS011;49686;51.880;5.632;2023-04-24T07:04:19;1.55;;;1.38;;
63536;SDS011;49686;51.880;5.632;2023-04-24T07:06:48;1.55;;;1.10;;
63536;SDS011;49686;51.880;5.632;2023-04-24T07:09:15;1.88;;;1.40;;
63536;SDS011;49686;51.880;5.632;2023-04-24T07:11:42;1.55;;;1.45;;
63536;SDS011;49686;51.880;5.632;2023-04-24T07:14:08;2.50;;;1.70;;
63536;SDS011;49686;51.880;5.632;2023-04-24T07:16:35;2.20;;;2.00;;
63536;SDS011;49686;51.880;5.632;2023-04-24T07:19:02;2.35;;;1.60;;
63536;SDS011;49686;51.880;5.632;2023-04-24T07:21:29;3.30;;;3.00;;
63536;SDS011;49686;51.880;5.632;2023-04-24T07:23:57;3.22;;;2.60;;
63536;SDS011;49686;51.880;5.632;2023-04-24T07:26:24;3.80;;;3.08;;
63536;SDS011;49686;51.880;5.632;2023-04-24T07:28:51;8.20;;;4.65;;
63536;SDS011;49686;51.880;5.632;2023-04-24T07:31:18;8.95;;;6.32;;
63536;SDS011;49686;51.880;5.632;2023-04-24T07:33:45;10.80;;;7.50;;
63536;SDS011;49686;51.880;5.632;2023-04-24T07:36:12;11.82;;;7.78;;
63536;SDS011;49686;51.880;5.632;2023-04-24T07:38:39;10.15;;;6.15;;
63536;SDS011;49686;51.880;5.632;2023-04-24T07:41:07;15.93;;;9.60;;
63536;SDS011;49686;51.880;5.632;2023-04-24T07:43:34;13.70;;;8.47;;
63536;SDS011;49686;51.880;5.632;2023-04-24T07:46:01;15.07;;;9.77;;
63536;SDS011;49686;51.880;5.632;2023-04-24T07:48:28;14.02;;;8.55;;
63536;SDS011;49686;51.880;5.632;2023-04-24T07:50:55;15.48;;;8.73;;
63536;SDS011;49686;51.880;5.632;2023-04-24T07:53:22;17.30;;;9.63;;
63536;SDS011;49686;51.880;5.632;2023-04-24T07:55:48;15.82;;;10.45;;
63536;SDS011;49686;51.880;5.632;2023-04-24T07:58:16;19.35;;;10.35;;
63536;SDS011;49686;51.880;5.632;2023-04-24T08:00:43;15.50;;;9.63;;
63536;SDS011;49686;51.880;5.632;2023-04-24T08:03:10;18.42;;;10.00;;
63536;SDS011;49686;51.880;5.632;2023-04-24T08:05:37;20.20;;;10.98;;
63536;SDS011;49686;51.880;5.632;2023-04-24T08:08:06;12.60;;;7.28;;
63536;SDS011;49686;51.880;5.632;2023-04-24T08:10:33;13.35;;;8.60;;
63536;SDS011;49686;51.880;5.632;2023-04-24T08:13:00;15.40;;;8.88;;
63536;SDS011;49686;51.880;5.632;2023-04-24T08:15:28;16.75;;;10.45;;
63536;SDS011;49686;51.880;5.632;2023-04-24T08:17:55;15.35;;;8.25;;
63536;SDS011;49686;51.880;5.632;2023-04-24T08:20:24;16.80;;;8.60;;
63536;SDS011;49686;51.880;5.632;2023-04-24T08:22:51;18.25;;;9.13;;
63536;SDS011;49686;51.880;5.632;2023-04-24T08:25:18;18.27;;;8.57;;
63536;SDS011;49686;51.880;5.632;2023-04-24T08:27:45;16.42;;;7.57;;
63536;SDS011;49686;51.880;5.632;2023-04-24T08:30:11;15.43;;;7.30;;
63536;SDS011;49686;51.880;5.632;2023-04-24T08:32:40;19.73;;;7.55;;
63536;SDS011;49686;51.880;5.632;2023-04-24T08:35:07;16.00;;;7.35;;
63536;SDS011;49686;51.880;5.632;2023-04-24T08:37:34;16.65;;;6.07;;
63536;SDS011;49686;51.880;5.632;2023-04-24T08:40:01;17.05;;;6.95;;
63536;SDS011;49686;51.880;5.632;2023-04-24T08:42:33;20.13;;;6.65;;
63536;SDS011;49686;51.880;5.632;2023-04-24T08:45:03;19.98;;;7.28;;
63536;SDS011;49686;51.880;5.632;2023-04-24T08:47:30;15.30;;;5.38;;
63536;SDS011;49686;51.880;5.632;2023-04-24T08:50:00;13.93;;;4.20;;
63536;SDS011;49686;51.880;5.632;2023-04-24T08:52:29;16.10;;;3.78;;
63536;SDS011;49686;51.880;5.632;2023-04-24T08:54:56;17.10;;;4.68;;
63536;SDS011;49686;51.880;5.632;2023-04-24T08:57:23;17.63;;;4.30;;
63536;SDS011;49686;51.880;5.632;2023-04-24T08:59:51;12.10;;;4.50;;
63536;SDS011;49686;51.880;5.632;2023-04-24T09:02:19;11.60;;;3.15;;
63536;SDS011;49686;51.880;5.632;2023-04-24T09:04:47;13.00;;;2.90;;
63536;SDS011;49686;51.880;5.632;2023-04-24T09:07:17;9.95;;;2.80;;
63536;SDS011;49686;51.880;5.632;2023-04-24T09:09:45;9.18;;;2.83;;
63536;SDS011;49686;51.880;5.632;2023-04-24T09:12:15;7.95;;;3.65;;
63536;SDS011;49686;51.880;5.632;2023-04-24T09:14:43;11.43;;;2.88;;
63536;SDS011;49686;51.880;5.632;2023-04-24T09:17:10;9.63;;;3.00;;
63536;SDS011;49686;51.880;5.632;2023-04-24T09:19:37;9.18;;;2.60;;
63536;SDS011;49686;51.880;5.632;2023-04-24T09:22:07;12.52;;;2.70;;
63536;SDS011;49686;51.880;5.632;2023-04-24T09:24:36;10.05;;;2.45;;
63536;SDS011;49686;51.880;5.632;2023-04-24T09:27:04;10.13;;;3.08;;
63536;SDS011;49686;51.880;5.632;2023-04-24T09:29:31;7.38;;;2.50;;
63536;SDS011;49686;51.880;5.632;2023-04-24T09:31:58;11.27;;;2.80;;
63536;SDS011;49686;51.880;5.632;2023-04-24T09:34:26;7.82;;;2.10;;
63536;SDS011;49686;51.880;5.632;2023-04-24T09:36:54;11.98;;;2.90;;
63536;SDS011;49686;51.880;5.632;2023-04-24T09:39:20;8.02;;;3.05;;
63536;SDS011;49686;51.880;5.632;2023-04-24T09:41:49;5.45;;;2.00;;
63536;SDS011;49686;51.880;5.632;2023-04-24T09:44:18;10.63;;;2.55;;
63536;SDS011;49686;51.880;5.632;2023-04-24T09:46:48;11.82;;;3.03;;
63536;SDS011;49686;51.880;5.632;2023-04-24T09:49:16;9.75;;;2.78;;
63536;SDS011;49686;51.880;5.632;2023-04-24T09:51:49;7.40;;;2.55;;
63536;SDS011;49686;51.880;5.632;2023-04-24T09:54:17;4.90;;;2.20;;
63536;SDS011;49686;51.880;5.632;2023-04-24T09:56:45;6.93;;;2.17;;
63536;SDS011;49686;51.880;5.632;2023-04-24T09:59:15;7.57;;;2.00;;
63536;SDS011;49686;51.880;5.632;2023-04-24T10:01:43;9.57;;;2.60;;
63536;SDS011;49686;51.880;5.632;2023-04-24T10:04:17;6.13;;;2.55;;
63536;SDS011;49686;51.880;5.632;2023-04-24T10:06:44;10.10;;;2.30;;
63536;SDS011;49686;51.880;5.632;2023-04-24T10:09:12;5.63;;;2.25;;
63536;SDS011;49686;51.880;5.632;2023-04-24T10:11:41;6.28;;;1.95;;
63536;SDS011;49686;51.880;5.632;2023-04-24T10:14:09;6.93;;;2.00;;
63536;SDS011;49686;51.880;5.632;2023-04-24T10:16:38;4.88;;;1.55;;
63536;SDS011;49686;51.880;5.632;2023-04-24T10:19:06;8.77;;;2.33;;
63536;SDS011;49686;51.880;5.632;2023-04-24T10:21:33;7.07;;;1.70;;
63536;SDS011;49686;51.880;5.632;2023-04-24T10:24:00;6.38;;;1.70;;
63536;SDS011;49686;51.880;5.632;2023-04-24T10:26:27;5.45;;;1.55;;
63536;SDS011;49686;51.880;5.632;2023-04-24T10:28:54;5.55;;;1.75;;
63536;SDS011;49686;51.880;5.632;2023-04-24T10:31:23;7.55;;;1.73;;
63536;SDS011;49686;51.880;5.632;2023-04-24T10:33:52;6.32;;;1.58;;
63536;SDS011;49686;51.880;5.632;2023-04-24T10:36:21;7.70;;;2.10;;
63536;SDS011;49686;51.880;5.632;2023-04-24T10:38:49;4.63;;;1.40;;
63536;SDS011;49686;51.880;5.632;2023-04-24T10:41:16;5.55;;;1.63;;
63536;SDS011;49686;51.880;5.632;2023-04-24T10:43:44;6.03;;;1.90;;
63536;SDS011;49686;51.880;5.632;2023-04-24T10:46:16;5.43;;;1.63;;
63536;SDS011;49686;51.880;5.632;2023-04-24T10:48:52;5.82;;;1.80;;
63536;SDS011;49686;51.880;5.632;2023-04-24T10:51:21;2.83;;;1.20;;
63536;SDS011;49686;51.880;5.632;2023-04-24T10:53:49;5.40;;;1.75;;
63536;SDS011;49686;51.880;5.632;2023-04-24T10:56:17;4.55;;;1.25;;
63536;SDS011;49686;51.880;5.632;2023-04-24T10:58:49;4.28;;;1.40;;
63536;SDS011;49686;51.880;5.632;2023-04-24T11:01:23;5.43;;;1.75;;
63536;SDS011;49686;51.880;5.632;2023-04-24T11:03:55;3.80;;;1.23;;
63536;SDS011;49686;51.880;5.632;2023-04-24T11:06:29;3.28;;;1.20;;
63536;SDS011;49686;51.880;5.632;2023-04-24T11:08:59;6.63;;;1.60;;
63536;SDS011;49686;51.880;5.632;2023-04-24T11:11:29;2.85;;;1.40;;
63536;SDS011;49686;51.880;5.632;2023-04-24T11:14:06;5.70;;;2.10;;
63536;SDS011;49686;51.880;5.632;2023-04-24T11:16:35;6.38;;;1.30;;
63536;SDS011;49686;51.880;5.632;2023-04-24T11:19:07;3.42;;;1.05;;
63536;SDS011;49686;51.880;5.632;2023-04-24T11:21:41;4.30;;;2.17;;
63536;SDS011;49686;51.880;5.632;2023-04-24T11:24:21;3.65;;;2.10;;
63536;SDS011;49686;51.880;5.632;2023-04-24T11:26:50;3.78;;;1.20;;
63536;SDS011;49686;51.880;5.632;2023-04-24T11:29:19;4.10;;;1.40;;
63536;SDS011;49686;51.880;5.632;2023-04-24T11:31:48;4.50;;;0.80;;
63536;SDS011;49686;51.880;5.632;2023-04-24T11:34:17;3.13;;;0.68;;
63536;SDS011;49686;51.880;5.632;2023-04-24T11:36:44;3.83;;;0.90;;
63536;SDS011;49686;51.880;5.632;2023-04-24T11:39:13;2.92;;;1.40;;
63536;SDS011;49686;51.880;5.632;2023-04-24T11:41:41;2.80;;;0.88;;
63536;SDS011;49686;51.880;5.632;2023-04-24T11:44:09;3.15;;;0.90;;
63536;SDS011;49686;51.880;5.632;2023-04-24T11:46:36;2.50;;;1.10;;
63536;SDS011;49686;51.880;5.632;2023-04-24T11:49:03;4.13;;;0.80;;
63536;SDS011;49686;51.880;5.632;2023-04-24T11:51:32;2.85;;;0.73;;
63536;SDS011;49686;51.880;5.632;2023-04-24T11:54:16;1.85;;;0.90;;
63536;SDS011;49686;51.880;5.632;2023-04-24T11:56:44;1.80;;;0.70;;
63536;SDS011;49686;51.880;5.632;2023-04-24T11:59:12;4.90;;;0.90;;
63536;SDS011;49686;51.880;5.632;2023-04-24T12:01:45;2.25;;;1.40;;
63536;SDS011;49686;51.880;5.632;2023-04-24T12:04:12;1.10;;;0.70;;
63536;SDS011;49686;51.880;5.632;2023-04-24T12:06:40;2.95;;;1.10;;
63536;SDS011;49686;51.880;5.632;2023-04-24T12:09:25;3.80;;;0.90;;
63536;SDS011;49686;51.880;5.632;2023-04-24T12:11:52;3.03;;;1.00;;
63536;SDS011;49686;51.880;5.632;2023-04-24T12:14:19;3.70;;;0.90;;
63536;SDS011;49686;51.880;5.632;2023-04-24T12:16:47;2.88;;;1.05;;
63536;SDS011;49686;51.880;5.632;2023-04-24T12:19:17;4.43;;;1.25;;
63536;SDS011;49686;51.880;5.632;2023-04-24T12:21:46;5.65;;;1.00;;
63536;SDS011;49686;51.880;5.632;2023-04-24T12:24:25;6.03;;;1.20;;
63536;SDS011;49686;51.880;5.632;2023-04-24T12:26:52;1.25;;;1.13;;
63536;SDS011;49686;51.880;5.632;2023-04-24T12:29:19;5.07;;;0.90;;
63536;SDS011;49686;51.880;5.632;2023-04-24T12:31:46;4.70;;;1.63;;
63536;SDS011;49686;51.880;5.632;2023-04-24T12:34:17;5.97;;;1.15;;
63536;SDS011;49686;51.880;5.632;2023-04-24T12:36:46;4.05;;;1.08;;
63536;SDS011;49686;51.880;5.632;2023-04-24T12:39:15;3.85;;;0.95;;
63536;SDS011;49686;51.880;5.632;2023-04-24T12:41:55;3.25;;;0.95;;
63536;SDS011;49686;51.880;5.632;2023-04-24T12:44:30;3.67;;;1.13;;
63536;SDS011;49686;51.880;5.632;2023-04-24T12:46:57;2.58;;;0.90;;
63536;SDS011;49686;51.880;5.632;2023-04-24T12:49:24;1.60;;;0.80;;
63536;SDS011;49686;51.880;5.632;2023-04-24T12:51:52;3.38;;;1.10;;
63536;SDS011;49686;51.880;5.632;2023-04-24T12:54:20;3.05;;;1.00;;
63536;SDS011;49686;51.880;5.632;2023-04-24T12:56:47;4.75;;;1.65;;
63536;SDS011;49686;51.880;5.632;2023-04-24T12:59:14;5.57;;;1.42;;
63536;SDS011;49686;51.880;5.632;2023-04-24T13:01:41;6.15;;;1.00;;
63536;SDS011;49686;51.880;5.632;2023-04-24T13:04:07;3.45;;;0.90;;
63536;SDS011;49686;51.880;5.632;2023-04-24T13:06:34;4.50;;;1.20;;
63536;SDS011;49686;51.880;5.632;2023-04-24T13:09:03;6.95;;;1.25;;
63536;SDS011;49686;51.880;5.632;2023-04-24T13:11:29;7.65;;;1.33;;
63536;SDS011;49686;51.880;5.632;2023-04-24T13:13:56;7.30;;;1.20;;
63536;SDS011;49686;51.880;5.632;2023-04-24T13:16:23;3.08;;;1.00;;
63536;SDS011;49686;51.880;5.632;2023-04-24T13:18:50;4.70;;;1.70;;
63536;SDS011;49686;51.880;5.632;2023-04-24T13:21:17;2.50;;;1.15;;
63536;SDS011;49686;51.880;5.632;2023-04-24T13:23:46;4.18;;;1.02;;
63536;SDS011;49686;51.880;5.632;2023-04-24T13:26:14;7.65;;;1.45;;
63536;SDS011;49686;51.880;5.632;2023-04-24T13:28:41;4.13;;;1.50;;
63536;SDS011;49686;51.880;5.632;2023-04-24T13:31:08;5.78;;;1.35;;
63536;SDS011;49686;51.880;5.632;2023-04-24T13:33:36;4.00;;;1.10;;
63536;SDS011;49686;51.880;5.632;2023-04-24T13:36:03;3.50;;;1.10;;
63536;SDS011;49686;51.880;5.632;2023-04-24T13:38:30;5.85;;;2.15;;
63536;SDS011;49686;51.880;5.632;2023-04-24T13:40:56;7.40;;;1.77;;
63536;SDS011;49686;51.880;5.632;2023-04-24T13:43:25;6.32;;;2.60;;
63536;SDS011;49686;51.880;5.632;2023-04-24T13:45:51;5.20;;;1.50;;
63536;SDS011;49686;51.880;5.632;2023-04-24T13:48:18;6.40;;;1.70;;
63536;SDS011;49686;51.880;5.632;2023-04-24T13:50:45;6.22;;;1.67;;
63536;SDS011;49686;51.880;5.632;2023-04-24T13:53:12;9.10;;;2.15;;
63536;SDS011;49686;51.880;5.632;2023-04-24T13:55:38;3.83;;;1.58;;
63536;SDS011;49686;51.880;5.632;2023-04-24T13:58:05;7.43;;;1.58;;
63536;SDS011;49686;51.880;5.632;2023-04-24T14:00:34;5.97;;;1.67;;
63536;SDS011;49686;51.880;5.632;2023-04-24T14:03:00;6.60;;;2.17;;
63536;SDS011;49686;51.880;5.632;2023-04-24T14:05:27;6.50;;;1.67;;
63536;SDS011;49686;51.880;5.632;2023-04-24T14:07:54;7.88;;;2.58;;
63536;SDS011;49686;51.880;5.632;2023-04-24T14:10:21;7.47;;;1.95;;
63536;SDS011;49686;51.880;5.632;2023-04-24T14:12:48;6.43;;;2.60;;
63536;SDS011;49686;51.880;5.632;2023-04-24T14:15:15;6.35;;;2.38;;
63536;SDS011;49686;51.880;5.632;2023-04-24T14:17:43;8.15;;;2.00;;
63536;SDS011;49686;51.880;5.632;2023-04-24T14:20:12;6.43;;;2.05;;
63536;SDS011;49686;51.880;5.632;2023-04-24T14:22:39;5.78;;;1.50;;
63536;SDS011;49686;51.880;5.632;2023-04-24T14:25:06;7.00;;;2.00;;
63536;SDS011;49686;51.880;5.632;2023-04-24T14:27:33;7.20;;;2.08;;
63536;SDS011;49686;51.880;5.632;2023-04-24T14:30:00;7.95;;;1.90;;
63536;SDS011;49686;51.880;5.632;2023-04-24T14:32:27;5.63;;;2.10;;
63536;SDS011;49686;51.880;5.632;2023-04-24T14:34:55;11.60;;;2.20;;
63536;SDS011;49686;51.880;5.632;2023-04-24T14:37:22;9.03;;;2.47;;
63536;SDS011;49686;51.880;5.632;2023-04-24T14:39:49;8.52;;;2.10;;
63536;SDS011;49686;51.880;5.632;2023-04-24T14:42:35;7.07;;;2.60;;
63536;SDS011;49686;51.880;5.632;2023-04-24T14:45:02;15.10;;;2.40;;